Hovedside
METAR-TAF:

METAR-TAF

Lufthavner :

Thoothukudi, India

breddegrad: 8-43-27N, lengdegrad: 78-01-33E, høyde over havet: 39 m

Gjeldene værobservasjon

Denne rapporten ble laget for 30 minutter siden, klokken 01:30 UTC
Vind 15 kt fra Vest med vindkast opp mot 25 kt
Temperatur 26°C
Luftfuktighet 84%
Trykk 1006 hPa
Sikt: 5000 m
Spredte skyer i en høyde av 1800 ft
Overskyet i en høyde av 8000 ft
lett duskregn

METAR: VOTK 150130Z 28015G25KT 5000 -DZ SCT018 OVC080 26/23 Q1006 TEMPO 3000 RA

Tid: 07:30 (02:00 UTC)


TAF: fraværende

Værobservasjoner og værvarsel for over 4000 flyplasser (METAR- og TAF-rapporter).

Tilgjengelige stasjoner er representert av de røde og gule prikkene på kartet.

Hold musepekeren over prikken for å se navnet på stasjonen.

Klikk så for å se værobservasjoner og -varsler.

For å forandre kartet kan du klikke på den grønne knappen med svart kryss for å zoome inn, på den grønne knappen med strek for å zoome ut, eller på de grønne pilene for å se tilstøtende kart.


METAR-TAF: